sensor_id;sensor_type;location;lat;lon;timestamp;pressure;altitude;pressure_sealevel;temperature;humidity
11114;BME280;5610;52.154;9.198;2023-04-27T00:00:37;101097.41;;;7.81;100.00
11114;BME280;5610;52.154;9.198;2023-04-27T00:03:22;101096.63;;;7.79;100.00
11114;BME280;5610;52.154;9.198;2023-04-27T00:06:07;101095.75;;;7.79;100.00
11114;BME280;5610;52.154;9.198;2023-04-27T00:08:53;101100.91;;;7.82;100.00
11114;BME280;5610;52.154;9.198;2023-04-27T00:11:39;101099.09;;;7.84;100.00
11114;BME280;5610;52.154;9.198;2023-04-27T00:14:25;101093.09;;;7.79;100.00
11114;BME280;5610;52.154;9.198;2023-04-27T00:17:11;101102.72;;;7.81;100.00
11114;BME280;5610;52.154;9.198;2023-04-27T00:19:56;101102.78;;;7.80;100.00
11114;BME280;5610;52.154;9.198;2023-04-27T00:22:42;101100.19;;;7.78;100.00
11114;BME280;5610;52.154;9.198;2023-04-27T00:25:27;101102.94;;;7.77;100.00
11114;BME280;5610;52.154;9.198;2023-04-27T00:28:12;101099.41;;;7.76;100.00
11114;BME280;5610;52.154;9.198;2023-04-27T00:30:59;101098.56;;;7.76;100.00
11114;BME280;5610;52.154;9.198;2023-04-27T00:33:46;101092.34;;;7.75;100.00
11114;BME280;5610;52.154;9.198;2023-04-27T00:36:33;101097.03;;;7.70;100.00
11114;BME280;5610;52.154;9.198;2023-04-27T00:39:19;101096.19;;;7.68;100.00
11114;BME280;5610;52.154;9.198;2023-04-27T00:42:04;101101.78;;;7.62;100.00
11114;BME280;5610;52.154;9.198;2023-04-27T00:44:56;101096.84;;;7.53;100.00
11114;BME280;5610;52.154;9.198;2023-04-27T00:47:43;101111.97;;;7.51;100.00
11114;BME280;5610;52.154;9.198;2023-04-27T00:50:28;101103.47;;;7.42;100.00
11114;BME280;5610;52.154;9.198;2023-04-27T00:53:14;101106.13;;;7.42;100.00
11114;BME280;5610;52.154;9.198;2023-04-27T00:55:59;101109.56;;;7.44;100.00
11114;BME280;5610;52.154;9.198;2023-04-27T00:58:46;101104.34;;;7.43;100.00
11114;BME280;5610;52.154;9.198;2023-04-27T01:01:31;101107.78;;;7.45;100.00
11114;BME280;5610;52.154;9.198;2023-04-27T01:04:18;101121.97;;;7.44;100.00
11114;BME280;5610;52.154;9.198;2023-04-27T01:07:04;101110.63;;;7.40;100.00
11114;BME280;5610;52.154;9.198;2023-04-27T01:09:49;101115.25;;;7.35;100.00
11114;BME280;5610;52.154;9.198;2023-04-27T01:12:35;101117.22;;;7.30;100.00
11114;BME280;5610;52.154;9.198;2023-04-27T01:15:22;101126.09;;;7.29;100.00
11114;BME280;5610;52.154;9.198;2023-04-27T01:18:07;101126.34;;;7.23;100.00
11114;BME280;5610;52.154;9.198;2023-04-27T01:20:54;101123.84;;;7.19;100.00
11114;BME280;5610;52.154;9.198;2023-04-27T01:23:41;101129.38;;;7.14;100.00
11114;BME280;5610;52.154;9.198;2023-04-27T01:26:28;101138.34;;;7.10;100.00
11114;BME280;5610;52.154;9.198;2023-04-27T01:29:13;101140.50;;;7.00;100.00
11114;BME280;5610;52.154;9.198;2023-04-27T01:31:58;101139.88;;;6.94;100.00
11114;BME280;5610;52.154;9.198;2023-04-27T01:34:44;101143.44;;;6.93;100.00
11114;BME280;5610;52.154;9.198;2023-04-27T01:37:29;101150.75;;;6.86;100.00
11114;BME280;5610;52.154;9.198;2023-04-27T01:40:16;101147.91;;;6.91;100.00
11114;BME280;5610;52.154;9.198;2023-04-27T01:43:01;101163.78;;;6.92;100.00
11114;BME280;5610;52.154;9.198;2023-04-27T01:45:47;101155.00;;;6.90;100.00
11114;BME280;5610;52.154;9.198;2023-04-27T01:48:32;101151.63;;;6.86;100.00
11114;BME280;5610;52.154;9.198;2023-04-27T01:51:17;101152.88;;;6.76;100.00
11114;BME280;5610;52.154;9.198;2023-04-27T01:54:03;101165.25;;;6.76;100.00
11114;BME280;5610;52.154;9.198;2023-04-27T01:56:50;101164.69;;;6.68;100.00
11114;BME280;5610;52.154;9.198;2023-04-27T01:59:35;101172.53;;;6.71;100.00
11114;BME280;5610;52.154;9.198;2023-04-27T02:02:21;101178.06;;;6.65;100.00
11114;BME280;5610;52.154;9.198;2023-04-27T02:05:07;101180.91;;;6.58;100.00
11114;BME280;5610;52.154;9.198;2023-04-27T02:07:52;101178.34;;;6.57;100.00
11114;BME280;5610;52.154;9.198;2023-04-27T02:10:40;101183.78;;;6.52;100.00
11114;BME280;5610;52.154;9.198;2023-04-27T02:13:26;101189.25;;;6.48;100.00
11114;BME280;5610;52.154;9.198;2023-04-27T02:16:11;101186.22;;;6.33;100.00
11114;BME280;5610;52.154;9.198;2023-04-27T02:18:57;101186.41;;;6.29;100.00
11114;BME280;5610;52.154;9.198;2023-04-27T02:21:43;101189.97;;;6.28;100.00
11114;BME280;5610;52.154;9.198;2023-04-27T02:24:28;101181.25;;;6.24;100.00
11114;BME280;5610;52.154;9.198;2023-04-27T02:27:13;101184.97;;;6.19;100.00
11114;BME280;5610;52.154;9.198;2023-04-27T02:30:03;101184.13;;;6.18;100.00
11114;BME280;5610;52.154;9.198;2023-04-27T02:32:48;101185.19;;;6.13;100.00
11114;BME280;5610;52.154;9.198;2023-04-27T02:35:33;101191.44;;;6.10;100.00
11114;BME280;5610;52.154;9.198;2023-04-27T02:38:18;101187.28;;;6.03;100.00
11114;BME280;5610;52.154;9.198;2023-04-27T02:41:04;101189.19;;;5.99;100.00
11114;BME280;5610;52.154;9.198;2023-04-27T02:43:51;101187.50;;;5.97;100.00
11114;BME280;5610;52.154;9.198;2023-04-27T02:46:37;101186.69;;;5.95;100.00
11114;BME280;5610;52.154;9.198;2023-04-27T02:49:23;101187.66;;;5.92;100.00
11114;BME280;5610;52.154;9.198;2023-04-27T02:52:08;101190.47;;;5.86;100.00
11114;BME280;5610;52.154;9.198;2023-04-27T02:54:53;101193.16;;;5.85;100.00
11114;BME280;5610;52.154;9.198;2023-04-27T02:57:38;101190.75;;;5.78;100.00
11114;BME280;5610;52.154;9.198;2023-04-27T03:00:24;101183.25;;;5.65;100.00
11114;BME280;5610;52.154;9.198;2023-04-27T03:03:11;101182.22;;;5.69;100.00
11114;BME280;5610;52.154;9.198;2023-04-27T03:05:56;101177.31;;;5.58;100.00
11114;BME280;5610;52.154;9.198;2023-04-27T03:08:41;101178.22;;;5.57;100.00
11114;BME280;5610;52.154;9.198;2023-04-27T03:11:27;101179.09;;;5.56;100.00
11114;BME280;5610;52.154;9.198;2023-04-27T03:14:12;101184.03;;;5.40;100.00
11114;BME280;5610;52.154;9.198;2023-04-27T03:16:57;101188.56;;;5.37;100.00
11114;BME280;5610;52.154;9.198;2023-04-27T03:19:45;101193.44;;;5.21;100.00
11114;BME280;5610;52.154;9.198;2023-04-27T03:22:31;101195.13;;;5.23;100.00
11114;BME280;5610;52.154;9.198;2023-04-27T03:25:16;101188.13;;;5.21;100.00
11114;BME280;5610;52.154;9.198;2023-04-27T03:28:01;101192.00;;;5.11;100.00
11114;BME280;5610;52.154;9.198;2023-04-27T03:30:46;101204.50;;;5.04;100.00
11114;BME280;5610;52.154;9.198;2023-04-27T03:33:31;101193.81;;;5.09;100.00
11114;BME280;5610;52.154;9.198;2023-04-27T03:36:18;101196.47;;;5.07;100.00
11114;BME280;5610;52.154;9.198;2023-04-27T03:39:03;101195.72;;;5.04;100.00
11114;BME280;5610;52.154;9.198;2023-04-27T03:41:49;101187.94;;;4.99;100.00
11114;BME280;5610;52.154;9.198;2023-04-27T03:44:34;101189.66;;;5.00;100.00
11114;BME280;5610;52.154;9.198;2023-04-27T03:47:19;101192.69;;;4.88;100.00
11114;BME280;5610;52.154;9.198;2023-04-27T03:50:05;101185.63;;;4.88;100.00
11114;BME280;5610;52.154;9.198;2023-04-27T03:52:52;101186.72;;;4.81;100.00
11114;BME280;5610;52.154;9.198;2023-04-27T03:55:37;101185.91;;;4.78;100.00
11114;BME280;5610;52.154;9.198;2023-04-27T03:58:23;101185.91;;;4.78;100.00
11114;BME280;5610;52.154;9.198;2023-04-27T04:01:24;101195.19;;;4.61;100.00
11114;BME280;5610;52.154;9.198;2023-04-27T04:04:09;101195.25;;;4.60;100.00
11114;BME280;5610;52.154;9.198;2023-04-27T04:06:54;101196.44;;;4.48;100.00
11114;BME280;5610;52.154;9.198;2023-04-27T04:09:41;101196.75;;;4.36;100.00
11114;BME280;5610;52.154;9.198;2023-04-27T04:12:28;101194.47;;;4.24;100.00
11114;BME280;5610;52.154;9.198;2023-04-27T04:15:14;101196.28;;;4.22;100.00
11114;BME280;5610;52.154;9.198;2023-04-27T04:18:00;101203.25;;;4.24;100.00
11114;BME280;5610;52.154;9.198;2023-04-27T04:20:45;101197.31;;;4.16;100.00
11114;BME280;5610;52.154;9.198;2023-04-27T04:23:31;101208.69;;;4.18;100.00
11114;BME280;5610;52.154;9.198;2023-04-27T04:26:18;101214.03;;;4.15;100.00
11114;BME280;5610;52.154;9.198;2023-04-27T04:29:03;101221.97;;;4.13;100.00
11114;BME280;5610;52.154;9.198;2023-04-27T04:31:49;101213.88;;;4.21;100.00
11114;BME280;5610;52.154;9.198;2023-04-27T04:34:34;101219.91;;;4.26;100.00
11114;BME280;5610;52.154;9.198;2023-04-27T04:37:21;101218.22;;;4.22;100.00
11114;BME280;5610;52.154;9.198;2023-04-27T04:40:08;101219.03;;;4.26;100.00
11114;BME280;5610;52.154;9.198;2023-04-27T04:42:55;101223.16;;;4.36;100.00
11114;BME280;5610;52.154;9.198;2023-04-27T04:45:41;101216.94;;;4.38;100.00
11114;BME280;5610;52.154;9.198;2023-04-27T04:48:27;101221.31;;;4.39;100.00
11114;BME280;5610;52.154;9.198;2023-04-27T04:51:13;101224.66;;;4.46;100.00
11114;BME280;5610;52.154;9.198;2023-04-27T04:53:58;101229.59;;;4.58;100.00
11114;BME280;5610;52.154;9.198;2023-04-27T04:56:44;101231.94;;;4.69;100.00
11114;BME280;5610;52.154;9.198;2023-04-27T04:59:33;101239.81;;;4.71;100.00
11114;BME280;5610;52.154;9.198;2023-04-27T05:02:18;101238.06;;;4.69;100.00
11114;BME280;5610;52.154;9.198;2023-04-27T05:05:04;101243.03;;;4.82;100.00
11114;BME280;5610;52.154;9.198;2023-04-27T05:07:49;101241.84;;;4.92;100.00
11114;BME280;5610;52.154;9.198;2023-04-27T05:10:34;101226.78;;;4.95;100.00
11114;BME280;5610;52.154;9.198;2023-04-27T05:13:20;101238.09;;;4.99;100.00
11114;BME280;5610;52.154;9.198;2023-04-27T05:16:07;101244.94;;;5.06;100.00
11114;BME280;5610;52.154;9.198;2023-04-27T05:18:52;101242.06;;;5.15;100.00
11114;BME280;5610;52.154;9.198;2023-04-27T05:21:38;101246.25;;;5.22;100.00
11114;BME280;5610;52.154;9.198;2023-04-27T05:24:23;101237.28;;;5.27;100.00
11114;BME280;5610;52.154;9.198;2023-04-27T05:27:09;101252.06;;;5.34;100.00
11114;BME280;5610;52.154;9.198;2023-04-27T05:29:54;101250.81;;;5.45;100.00
11114;BME280;5610;52.154;9.198;2023-04-27T05:32:40;101251.59;;;5.49;100.00
11114;BME280;5610;52.154;9.198;2023-04-27T05:35:25;101259.09;;;5.63;100.00
11114;BME280;5610;52.154;9.198;2023-04-27T05:38:10;101254.47;;;5.69;100.00
11114;BME280;5610;52.154;9.198;2023-04-27T05:40:58;101267.56;;;5.74;100.00
11114;BME280;5610;52.154;9.198;2023-04-27T05:43:43;101265.53;;;5.82;100.00
11114;BME280;5610;52.154;9.198;2023-04-27T05:46:28;101265.28;;;5.90;100.00
11114;BME280;5610;52.154;9.198;2023-04-27T05:49:15;101261.63;;;5.95;100.00
11114;BME280;5610;52.154;9.198;2023-04-27T05:52:00;101266.78;;;6.00;100.00
11114;BME280;5610;52.154;9.198;2023-04-27T05:54:46;101279.75;;;6.08;100.00
11114;BME280;5610;52.154;9.198;2023-04-27T05:57:31;101277.75;;;6.14;100.00
11114;BME280;5610;52.154;9.198;2023-04-27T06:00:17;101275.88;;;6.18;100.00
11114;BME280;5610;52.154;9.198;2023-04-27T06:03:05;101269.63;;;6.20;100.00
11114;BME280;5610;52.154;9.198;2023-04-27T06:05:54;101272.00;;;6.28;100.00
11114;BME280;5610;52.154;9.198;2023-04-27T06:08:40;101276.19;;;6.35;100.00
11114;BME280;5610;52.154;9.198;2023-04-27T06:11:25;101283.88;;;6.41;100.00
11114;BME280;5610;52.154;9.198;2023-04-27T06:14:10;101280.94;;;6.50;100.00
11114;BME280;5610;52.154;9.198;2023-04-27T06:16:56;101280.09;;;6.48;100.00
11114;BME280;5610;52.154;9.198;2023-04-27T06:19:41;101279.63;;;6.62;100.00
11114;BME280;5610;52.154;9.198;2023-04-27T06:22:28;101285.50;;;6.72;100.00
11114;BME280;5610;52.154;9.198;2023-04-27T06:25:14;101285.94;;;6.84;100.00
11114;BME280;5610;52.154;9.198;2023-04-27T06:27:59;101291.09;;;6.87;100.00
11114;BME280;5610;52.154;9.198;2023-04-27T06:30:44;101295.09;;;6.99;100.00
11114;BME280;5610;52.154;9.198;2023-04-27T06:33:29;101287.59;;;7.10;100.00
11114;BME280;5610;52.154;9.198;2023-04-27T06:36:15;101293.47;;;7.20;100.00
11114;BME280;5610;52.154;9.198;2023-04-27T06:39:02;101300.25;;;7.27;100.00
11114;BME280;5610;52.154;9.198;2023-04-27T06:41:47;101295.47;;;7.37;100.00
11114;BME280;5610;52.154;9.198;2023-04-27T06:44:36;101295.00;;;7.49;100.00
11114;BME280;5610;52.154;9.198;2023-04-27T06:47:21;101294.63;;;7.58;100.00
11114;BME280;5610;52.154;9.198;2023-04-27T06:50:07;101288.25;;;7.64;100.00
11114;BME280;5610;52.154;9.198;2023-04-27T06:52:52;101294.78;;;7.77;100.00
11114;BME280;5610;52.154;9.198;2023-04-27T06:55:39;101284.56;;;7.90;100.00
11114;BME280;5610;52.154;9.198;2023-04-27T06:58:24;101279.28;;;7.88;100.00
11114;BME280;5610;52.154;9.198;2023-04-27T07:01:10;101277.78;;;8.05;100.00
11114;BME280;5610;52.154;9.198;2023-04-27T07:03:55;101280.56;;;8.22;100.00
11114;BME280;5610;52.154;9.198;2023-04-27T07:06:41;101275.19;;;8.23;100.00
11114;BME280;5610;52.154;9.198;2023-04-27T07:09:26;101282.44;;;8.42;100.00
11114;BME280;5610;52.154;9.198;2023-04-27T07:12:13;101290.69;;;8.56;100.00
11114;BME280;5610;52.154;9.198;2023-04-27T07:14:58;101282.22;;;8.67;100.00
11114;BME280;5610;52.154;9.198;2023-04-27T07:17:45;101299.44;;;8.78;100.00
11114;BME280;5610;52.154;9.198;2023-04-27T07:20:30;101295.50;;;8.87;100.00
11114;BME280;5610;52.154;9.198;2023-04-27T07:23:16;101292.47;;;8.96;100.00
11114;BME280;5610;52.154;9.198;2023-04-27T07:26:01;101298.06;;;9.09;100.00
11114;BME280;5610;52.154;9.198;2023-04-27T07:28:48;101292.88;;;9.26;100.00
11114;BME280;5610;52.154;9.198;2023-04-27T07:31:33;101289.72;;;9.37;98.74
11114;BME280;5610;52.154;9.198;2023-04-27T07:34:18;101285.81;;;9.44;96.58
11114;BME280;5610;52.154;9.198;2023-04-27T07:37:03;101284.75;;;9.48;94.85
11114;BME280;5610;52.154;9.198;2023-04-27T07:39:49;101287.44;;;9.67;95.24
11114;BME280;5610;52.154;9.198;2023-04-27T07:42:36;101278.13;;;9.76;96.13
11114;BME280;5610;52.154;9.198;2023-04-27T07:45:23;101283.19;;;9.99;94.97
11114;BME280;5610;52.154;9.198;2023-04-27T07:48:14;101284.19;;;10.15;86.55
11114;BME280;5610;52.154;9.198;2023-04-27T07:51:00;101288.78;;;10.12;81.04
11114;BME280;5610;52.154;9.198;2023-04-27T07:53:45;101281.09;;;10.25;76.25
11114;BME280;5610;52.154;9.198;2023-04-27T07:56:30;101283.16;;;10.37;81.00
11114;BME280;5610;52.154;9.198;2023-04-27T07:59:16;101282.38;;;10.52;82.77
11114;BME280;5610;52.154;9.198;2023-04-27T08:02:02;101271.56;;;10.72;76.49
11114;BME280;5610;52.154;9.198;2023-04-27T08:04:48;101277.06;;;10.85;75.24
11114;BME280;5610;52.154;9.198;2023-04-27T08:07:34;101283.84;;;10.92;71.91
11114;BME280;5610;52.154;9.198;2023-04-27T08:10:20;101274.31;;;11.04;71.97
11114;BME280;5610;52.154;9.198;2023-04-27T08:13:05;101270.22;;;11.14;70.75
11114;BME280;5610;52.154;9.198;2023-04-27T08:15:52;101267.78;;;11.10;68.79
11114;BME280;5610;52.154;9.198;2023-04-27T08:18:42;101271.75;;;11.18;65.77
11114;BME280;5610;52.154;9.198;2023-04-27T08:21:27;101266.06;;;11.09;67.62
11114;BME280;5610;52.154;9.198;2023-04-27T08:24:13;101260.72;;;11.42;65.64
11114;BME280;5610;52.154;9.198;2023-04-27T08:26:58;101264.19;;;11.26;64.68
11114;BME280;5610;52.154;9.198;2023-04-27T08:29:44;101262.53;;;11.57;67.12
11114;BME280;5610;52.154;9.198;2023-04-27T08:32:31;101279.69;;;11.85;67.56
11114;BME280;5610;52.154;9.198;2023-04-27T08:35:17;101277.97;;;11.99;63.23
11114;BME280;5610;52.154;9.198;2023-04-27T08:38:03;101271.88;;;12.27;60.71
11114;BME280;5610;52.154;9.198;2023-04-27T08:40:48;101270.56;;;12.64;63.99
11114;BME280;5610;52.154;9.198;2023-04-27T08:43:34;101266.84;;;12.96;62.93
11114;BME280;5610;52.154;9.198;2023-04-27T08:46:19;101263.34;;;13.38;62.38
11114;BME280;5610;52.154;9.198;2023-04-27T08:49:05;101259.25;;;13.46;59.66
11114;BME280;5610;52.154;9.198;2023-04-27T08:51:52;101265.41;;;13.76;58.72
11114;BME280;5610;52.154;9.198;2023-04-27T08:54:37;101257.34;;;14.17;58.16
11114;BME280;5610;52.154;9.198;2023-04-27T08:57:23;101254.59;;;14.44;52.88
11114;BME280;5610;52.154;9.198;2023-04-27T09:00:08;101262.75;;;14.42;51.85
11114;BME280;5610;52.154;9.198;2023-04-27T09:02:56;101249.53;;;14.26;50.70
11114;BME280;5610;52.154;9.198;2023-04-27T09:05:45;101251.22;;;14.54;52.87
11114;BME280;5610;52.154;9.198;2023-04-27T09:08:41;101256.28;;;14.84;52.10
11114;BME280;5610;52.154;9.198;2023-04-27T09:11:28;101263.56;;;15.08;50.23
11114;BME280;5610;52.154;9.198;2023-04-27T09:14:15;101259.25;;;15.44;50.21
11114;BME280;5610;52.154;9.198;2023-04-27T09:17:01;101264.25;;;15.74;49.27
11114;BME280;5610;52.154;9.198;2023-04-27T09:19:46;101258.88;;;15.74;47.09
11114;BME280;5610;52.154;9.198;2023-04-27T09:22:40;101246.59;;;16.06;44.20
11114;BME280;5610;52.154;9.198;2023-04-27T09:25:28;101257.69;;;16.26;46.13
11114;BME280;5610;52.154;9.198;2023-04-27T09:28:14;101253.34;;;16.82;45.16
11114;BME280;5610;52.154;9.198;2023-04-27T09:31:00;101244.69;;;17.12;44.53
11114;BME280;5610;52.154;9.198;2023-04-27T09:33:53;101252.16;;;17.31;44.98
11114;BME280;5610;52.154;9.198;2023-04-27T09:36:39;101253.97;;;17.75;43.36
11114;BME280;5610;52.154;9.198;2023-04-27T09:39:24;101248.56;;;17.75;40.98
11114;BME280;5610;52.154;9.198;2023-04-27T09:42:11;101244.28;;;18.16;40.68
11114;BME280;5610;52.154;9.198;2023-04-27T09:44:58;101240.47;;;18.51;41.75
11114;BME280;5610;52.154;9.198;2023-04-27T09:47:44;101242.97;;;19.05;42.22
11114;BME280;5610;52.154;9.198;2023-04-27T09:50:29;101235.00;;;19.44;41.02
11114;BME280;5610;52.154;9.198;2023-04-27T09:53:17;101232.34;;;19.54;39.62
11114;BME280;5610;52.154;9.198;2023-04-27T09:56:14;101235.28;;;18.80;40.23
11114;BME280;5610;52.154;9.198;2023-04-27T09:59:17;101241.94;;;19.37;39.47
11114;BME280;5610;52.154;9.198;2023-04-27T10:02:09;101239.16;;;19.48;37.80
11114;BME280;5610;52.154;9.198;2023-04-27T10:05:09;101242.03;;;20.16;39.66
11114;BME280;5610;52.154;9.198;2023-04-27T10:07:57;101237.19;;;20.58;39.24
11114;BME280;5610;52.154;9.198;2023-04-27T10:10:46;101230.69;;;20.88;37.25
11114;BME280;5610;52.154;9.198;2023-04-27T10:13:31;101233.31;;;21.17;34.99
11114;BME280;5610;52.154;9.198;2023-04-27T10:16:18;101230.00;;;20.76;34.13
11114;BME280;5610;52.154;9.198;2023-04-27T10:19:08;101218.97;;;21.62;36.86
11114;BME280;5610;52.154;9.198;2023-04-27T10:21:55;101217.84;;;22.54;34.88
11114;BME280;5610;52.154;9.198;2023-04-27T10:24:48;101225.44;;;23.20;34.10
11114;BME280;5610;52.154;9.198;2023-04-27T10:27:38;101217.72;;;23.41;32.45
11114;BME280;5610;52.154;9.198;2023-04-27T10:30:26;101217.97;;;24.39;34.68
11114;BME280;5610;52.154;9.198;2023-04-27T10:33:17;101211.63;;;24.71;32.08
11114;BME280;5610;52.154;9.198;2023-04-27T10:36:13;101205.75;;;25.15;31.26
11114;BME280;5610;52.154;9.198;2023-04-27T10:38:59;101204.22;;;25.60;32.63
11114;BME280;5610;52.154;9.198;2023-04-27T10:41:52;101200.25;;;25.93;30.86
11114;BME280;5610;52.154;9.198;2023-04-27T10:44:37;101201.13;;;26.92;30.67
11114;BME280;5610;52.154;9.198;2023-04-27T10:47:22;101202.06;;;28.59;28.18
11114;BME280;5610;52.154;9.198;2023-04-27T10:50:11;101189.31;;;30.89;24.98
11114;BME280;5610;52.154;9.198;2023-04-27T10:53:02;101186.34;;;33.37;23.30
11114;BME280;5610;52.154;9.198;2023-04-27T10:55:53;101179.91;;;35.15;21.76
11114;BME280;5610;52.154;9.198;2023-04-27T10:58:39;101184.13;;;36.31;20.30
11114;BME280;5610;52.154;9.198;2023-04-27T11:01:24;101176.94;;;37.03;18.92
11114;BME280;5610;52.154;9.198;2023-04-27T11:04:09;101169.47;;;37.74;19.15
11114;BME280;5610;52.154;9.198;2023-04-27T11:06:56;101165.88;;;38.06;20.00
11114;BME280;5610;52.154;9.198;2023-04-27T11:09:42;101167.69;;;38.96;18.33
11114;BME280;5610;52.154;9.198;2023-04-27T11:12:27;101166.72;;;38.33;18.31
11114;BME280;5610;52.154;9.198;2023-04-27T11:15:12;101156.91;;;38.63;18.33
11114;BME280;5610;52.154;9.198;2023-04-27T11:18:03;101169.03;;;38.46;17.88
11114;BME280;5610;52.154;9.198;2023-04-27T11:20:51;101160.16;;;38.50;18.20
11114;BME280;5610;52.154;9.198;2023-04-27T11:23:38;101158.94;;;39.25;17.80
11114;BME280;5610;52.154;9.198;2023-04-27T11:26:24;101158.91;;;40.18;17.41
11114;BME280;5610;52.154;9.198;2023-04-27T11:29:09;101151.63;;;40.27;17.54
11114;BME280;5610;52.154;9.198;2023-04-27T11:31:56;101151.06;;;40.35;17.13
11114;BME280;5610;52.154;9.198;2023-04-27T11:34:48;101153.38;;;41.24;17.33
11114;BME280;5610;52.154;9.198;2023-04-27T11:37:33;101146.31;;;41.36;17.57
11114;BME280;5610;52.154;9.198;2023-04-27T11:40:20;101150.50;;;40.49;16.86
11114;BME280;5610;52.154;9.198;2023-04-27T11:43:05;101136.63;;;41.13;15.87
11114;BME280;5610;52.154;9.198;2023-04-27T11:45:50;101128.56;;;41.02;16.03
11114;BME280;5610;52.154;9.198;2023-04-27T11:48:36;101131.03;;;41.73;16.22
11114;BME280;5610;52.154;9.198;2023-04-27T11:51:23;101123.06;;;42.24;16.60
11114;BME280;5610;52.154;9.198;2023-04-27T11:54:08;101120.78;;;41.92;16.91
11114;BME280;5610;52.154;9.198;2023-04-27T11:57:03;101116.50;;;43.11;15.98
11114;BME280;5610;52.154;9.198;2023-04-27T11:59:48;101120.28;;;42.48;16.80
11114;BME280;5610;52.154;9.198;2023-04-27T12:02:33;101118.50;;;41.60;16.94
11114;BME280;5610;52.154;9.198;2023-04-27T12:05:18;101112.63;;;43.26;15.70
11114;BME280;5610;52.154;9.198;2023-04-27T12:08:04;101115.09;;;39.05;17.24
11114;BME280;5610;52.154;9.198;2023-04-27T12:10:50;101107.78;;;39.77;17.97
11114;BME280;5610;52.154;9.198;2023-04-27T12:13:36;101107.78;;;36.46;18.86
11114;BME280;5610;52.154;9.198;2023-04-27T12:16:22;101113.34;;;33.14;20.60
11114;BME280;5610;52.154;9.198;2023-04-27T12:19:07;101108.16;;;31.56;22.98
11114;BME280;5610;52.154;9.198;2023-04-27T12:21:53;101101.66;;;34.02;20.20
11114;BME280;5610;52.154;9.198;2023-04-27T12:24:39;101097.97;;;36.99;18.96
11114;BME280;5610;52.154;9.198;2023-04-27T12:27:24;101099.78;;;39.13;17.39
11114;BME280;5610;52.154;9.198;2023-04-27T12:30:11;101102.75;;;40.30;16.79
11114;BME280;5610;52.154;9.198;2023-04-27T12:32:57;101102.72;;;41.35;16.58
11114;BME280;5610;52.154;9.198;2023-04-27T12:35:43;101103.53;;;42.43;16.44
11114;BME280;5610;52.154;9.198;2023-04-27T12:38:28;101095.09;;;43.39;15.35
11114;BME280;5610;52.154;9.198;2023-04-27T12:41:14;101085.34;;;43.69;15.06
11114;BME280;5610;52.154;9.198;2023-04-27T12:43:59;101081.00;;;43.96;15.06
11114;BME280;5610;52.154;9.198;2023-04-27T12:46:45;101089.91;;;43.65;15.24
11114;BME280;5610;52.154;9.198;2023-04-27T12:49:31;101090.03;;;44.25;14.85
11114;BME280;5610;52.154;9.198;2023-04-27T12:52:16;101096.13;;;44.74;14.54
11114;BME280;5610;52.154;9.198;2023-04-27T12:55:02;101093.63;;;44.86;14.03
11114;BME280;5610;52.154;9.198;2023-04-27T12:57:49;101084.25;;;45.04;14.37
11114;BME280;5610;52.154;9.198;2023-04-27T13:00:34;101082.69;;;44.10;15.08
11114;BME280;5610;52.154;9.198;2023-04-27T13:03:20;101086.16;;;43.70;15.29
11114;BME280;5610;52.154;9.198;2023-04-27T13:06:06;101076.03;;;43.55;15.76
11114;BME280;5610;52.154;9.198;2023-04-27T13:08:52;101079.63;;;44.39;15.19
11114;BME280;5610;52.154;9.198;2023-04-27T13:11:37;101084.00;;;44.32;15.79
11114;BME280;5610;52.154;9.198;2023-04-27T13:14:23;101083.28;;;44.40;15.19
11114;BME280;5610;52.154;9.198;2023-04-27T13:17:11;101086.94;;;43.75;15.49
11114;BME280;5610;52.154;9.198;2023-04-27T13:19:57;101088.47;;;44.33;14.76
11114;BME280;5610;52.154;9.198;2023-04-27T13:22:43;101086.03;;;45.72;13.60
11114;BME280;5610;52.154;9.198;2023-04-27T13:25:28;101089.34;;;45.52;13.90
11114;BME280;5610;52.154;9.198;2023-04-27T13:28:13;101080.91;;;44.75;14.59
11114;BME280;5610;52.154;9.198;2023-04-27T13:30:59;101077.03;;;44.43;14.34
11114;BME280;5610;52.154;9.198;2023-04-27T13:33:44;101079.09;;;45.20;14.06
11114;BME280;5610;52.154;9.198;2023-04-27T13:36:31;101079.53;;;44.31;15.32
11114;BME280;5610;52.154;9.198;2023-04-27T13:39:16;101076.63;;;44.36;15.26
11114;BME280;5610;52.154;9.198;2023-04-27T13:42:01;101083.91;;;44.51;15.16
11114;BME280;5610;52.154;9.198;2023-04-27T13:44:47;101072.59;;;44.70;14.89
11114;BME280;5610;52.154;9.198;2023-04-27T13:47:32;101067.59;;;45.30;14.19
11114;BME280;5610;52.154;9.198;2023-04-27T13:50:19;101066.19;;;45.19;14.17
11114;BME280;5610;52.154;9.198;2023-04-27T13:53:06;101071.75;;;44.83;14.13
11114;BME280;5610;52.154;9.198;2023-04-27T13:55:52;101067.19;;;43.99;14.60
11114;BME280;5610;52.154;9.198;2023-04-27T13:58:37;101059.19;;;43.36;13.92
11114;BME280;5610;52.154;9.198;2023-04-27T14:01:24;101050.66;;;42.08;15.66
11114;BME280;5610;52.154;9.198;2023-04-27T14:04:09;101052.09;;;41.71;15.68
11114;BME280;5610;52.154;9.198;2023-04-27T14:06:54;101042.00;;;41.36;16.56
11114;BME280;5610;52.154;9.198;2023-04-27T14:09:41;101047.09;;;42.31;15.52
11114;BME280;5610;52.154;9.198;2023-04-27T14:12:26;101052.25;;;40.16;16.07
11114;BME280;5610;52.154;9.198;2023-04-27T14:15:12;101048.59;;;40.46;15.49
11114;BME280;5610;52.154;9.198;2023-04-27T14:17:58;101037.06;;;40.63;14.30
11114;BME280;5610;52.154;9.198;2023-04-27T14:20:43;101053.88;;;41.12;14.35
11114;BME280;5610;52.154;9.198;2023-04-27T14:23:29;101039.16;;;40.06;15.01
11114;BME280;5610;52.154;9.198;2023-04-27T14:26:16;101039.69;;;39.73;15.97
11114;BME280;5610;52.154;9.198;2023-04-27T14:29:01;101029.78;;;38.94;16.20
11114;BME280;5610;52.154;9.198;2023-04-27T14:31:47;101035.72;;;35.21;19.06
11114;BME280;5610;52.154;9.198;2023-04-27T14:34:32;101039.78;;;33.31;19.37
11114;BME280;5610;52.154;9.198;2023-04-27T14:37:17;101036.44;;;31.00;20.95
11114;BME280;5610;52.154;9.198;2023-04-27T14:40:03;101029.22;;;29.41;22.16